Lake Lincoln, Indiana
Current Conditions -  °F | °C
As of 10:35 AM on Friday 21 Nov 2014 (Local Time) from KHNB Reporting Station
Clear Clear  
Wind Chill: 26°   Ceiling: Unl
Heat Index: 34°   Visibility: 10mi
Dew Point: 16°   Wind: 10mph
Humidity: 48%   Direction: 140°SE
Pressure: 30.5"   Gusts: NA
Location:  38.1283°N, 86.9862°W
Report Text: KHNB 211635Z AUTO 14009KT 10SM CLR 01/M09 A3050 RMK AO1
Loading
Personal Weather Stations






























Interactive Weather Map New forecast layout! Learn more

10-Day Weather Forecast

Advertisements
Track Severe Weather on mobile